WZZ872 EPWA-LIRF
Flight info
| Callsign | WZZ872 |
|---|---|
| Flight time | 2h 4m |
| Altitude | 36000 |
| Route | EVINA Z175 SKARY DCT MAREG DCT RADLY DCT BAXON/N0448F350 DCT UNUMU DCT ETPOK DCT RITEB |
| Aircraft | A321/M-SDE1E2E3FGIJ1J4RWXY/LB1 |
Departure
| Time | 2026-05-06 15:17 |
|---|---|
| Airport | Warsaw Chopin Airport (EPWA) |
Arrival
| Time | 2026-05-06 17:21 |
|---|---|
| Airport | Rome–Fiumicino Leonardo da Vinci International Airport (LIRF) |
| Time | Latitude | Longitude | Altitude | Speed | Heading |
|---|---|---|---|---|---|
| 2026-05-06 14:50 | 52.17722 | 20.96231 | 338 ft | 0 kts | 242° |
| 2026-05-06 15:09 | 52.17722 | 20.96230 | 339 ft | 1 kts | 242° |
| 2026-05-06 15:09 | 52.17718 | 20.96217 | 335 ft | 2 kts | 242° |
| 2026-05-06 15:10 | 52.17710 | 20.96193 | 335 ft | 3 kts | 242° |
| 2026-05-06 15:10 | 52.17698 | 20.96161 | 336 ft | 3 kts | 231° |
| 2026-05-06 15:10 | 52.17674 | 20.96154 | 336 ft | 4 kts | 174° |
| 2026-05-06 15:10 | 52.17635 | 20.96183 | 337 ft | 8 kts | 152° |
| 2026-05-06 15:11 | 52.17572 | 20.96238 | 337 ft | 12 kts | 152° |
| 2026-05-06 15:11 | 52.17484 | 20.96315 | 338 ft | 16 kts | 152° |
| 2026-05-06 15:11 | 52.17375 | 20.96411 | 337 ft | 19 kts | 152° |
| 2026-05-06 15:11 | 52.17254 | 20.96516 | 336 ft | 20 kts | 152° |
| 2026-05-06 15:12 | 52.17131 | 20.96624 | 338 ft | 20 kts | 152° |
| 2026-05-06 15:12 | 52.17005 | 20.96734 | 337 ft | 21 kts | 152° |
| 2026-05-06 15:12 | 52.16877 | 20.96845 | 336 ft | 21 kts | 152° |
| 2026-05-06 15:12 | 52.16760 | 20.96947 | 339 ft | 15 kts | 152° |
| 2026-05-06 15:13 | 52.16682 | 20.97016 | 337 ft | 8 kts | 147° |
| 2026-05-06 15:13 | 52.16650 | 20.97100 | 336 ft | 9 kts | 114° |
| 2026-05-06 15:13 | 52.16620 | 20.97209 | 337 ft | 13 kts | 114° |
| 2026-05-06 15:13 | 52.16576 | 20.97365 | 335 ft | 17 kts | 115° |
| 2026-05-06 15:14 | 52.16526 | 20.97543 | 336 ft | 18 kts | 115° |
| 2026-05-06 15:14 | 52.16479 | 20.97708 | 335 ft | 11 kts | 115° |
| 2026-05-06 15:14 | 52.16454 | 20.97789 | 336 ft | 6 kts | 128° |
| 2026-05-06 15:14 | 52.16423 | 20.97803 | 338 ft | 5 kts | 184° |
| 2026-05-06 15:15 | 52.16389 | 20.97784 | 339 ft | 6 kts | 202° |
| 2026-05-06 15:15 | 52.16349 | 20.97756 | 339 ft | 7 kts | 205° |
| 2026-05-06 15:15 | 52.16307 | 20.97724 | 333 ft | 4 kts | 206° |
| 2026-05-06 15:15 | 52.16301 | 20.97704 | 333 ft | 3 kts | 264° |
| 2026-05-06 15:16 | 52.16305 | 20.97677 | 335 ft | 0 kts | 292° |
| 2026-05-06 15:16 | 52.16311 | 20.97653 | 337 ft | 12 kts | 292° |
| 2026-05-06 15:16 | 52.16453 | 20.97146 | 336 ft | 85 kts | 294° |
| 2026-05-06 15:17 | 52.16785 | 20.95951 | 349 ft | 145 kts | 294° |
| 2026-05-06 15:17 | 52.17370 | 20.93901 | 1123 ft | 148 kts | 290° |
| 2026-05-06 15:17 | 52.17650 | 20.92862 | 1529 ft | 150 kts | 287° |
| 2026-05-06 15:17 | 52.18071 | 20.91285 | 1990 ft | 151 kts | 282° |
| 2026-05-06 15:18 | 52.18190 | 20.89626 | 2427 ft | 148 kts | 253° |
| 2026-05-06 15:18 | 52.17965 | 20.87992 | 2969 ft | 147 kts | 255° |
| 2026-05-06 15:18 | 52.17725 | 20.86333 | 3346 ft | 158 kts | 256° |
| 2026-05-06 15:18 | 52.17469 | 20.84480 | 3551 ft | 176 kts | 255° |
| 2026-05-06 15:19 | 52.17194 | 20.82420 | 3755 ft | 198 kts | 255° |
| 2026-05-06 15:19 | 52.16885 | 20.80121 | 3946 ft | 218 kts | 256° |
| 2026-05-06 15:19 | 52.16544 | 20.77564 | 4154 ft | 243 kts | 257° |
| 2026-05-06 15:19 | 52.16177 | 20.74795 | 4683 ft | 253 kts | 256° |
| 2026-05-06 15:20 | 52.15726 | 20.72020 | 5382 ft | 255 kts | 244° |
| 2026-05-06 15:20 | 52.14668 | 20.69722 | 6109 ft | 257 kts | 220° |
| 2026-05-06 15:20 | 52.13259 | 20.67914 | 6844 ft | 258 kts | 219° |
| 2026-05-06 15:20 | 52.11850 | 20.66141 | 7548 ft | 260 kts | 219° |
| 2026-05-06 15:21 | 52.10392 | 20.64309 | 8301 ft | 262 kts | 220° |
| 2026-05-06 15:21 | 52.08967 | 20.62517 | 9038 ft | 264 kts | 220° |
| 2026-05-06 15:21 | 52.07509 | 20.60684 | 9769 ft | 265 kts | 220° |
| 2026-05-06 15:21 | 52.06024 | 20.58810 | 10172 ft | 280 kts | 220° |
| 2026-05-06 15:22 | 52.04427 | 20.56785 | 10314 ft | 302 kts | 220° |
| 2026-05-06 15:22 | 52.02719 | 20.54623 | 10567 ft | 318 kts | 219° |
| 2026-05-06 15:22 | 52.00956 | 20.52409 | 11148 ft | 323 kts | 219° |
| 2026-05-06 15:22 | 51.99171 | 20.50173 | 11789 ft | 325 kts | 219° |
| 2026-05-06 15:23 | 51.97373 | 20.47917 | 12436 ft | 328 kts | 218° |
| 2026-05-06 15:23 | 51.95472 | 20.45842 | 13060 ft | 332 kts | 208° |
| 2026-05-06 15:23 | 51.93310 | 20.44459 | 13661 ft | 338 kts | 197° |
| 2026-05-06 15:23 | 51.90967 | 20.43872 | 14225 ft | 343 kts | 188° |
| 2026-05-06 15:24 | 51.88580 | 20.43530 | 14790 ft | 346 kts | 188° |
| 2026-05-06 15:24 | 51.86177 | 20.43175 | 15391 ft | 348 kts | 188° |
| 2026-05-06 15:24 | 51.83756 | 20.42804 | 15984 ft | 351 kts | 189° |
| 2026-05-06 15:24 | 51.81320 | 20.42427 | 16569 ft | 353 kts | 189° |
| 2026-05-06 15:25 | 51.78864 | 20.42050 | 17161 ft | 355 kts | 189° |
| 2026-05-06 15:25 | 51.76397 | 20.41673 | 17742 ft | 358 kts | 189° |
| 2026-05-06 15:25 | 51.73911 | 20.41293 | 18266 ft | 361 kts | 189° |
| 2026-05-06 15:25 | 51.71403 | 20.40913 | 18751 ft | 364 kts | 189° |
| 2026-05-06 15:26 | 51.68874 | 20.40529 | 19231 ft | 366 kts | 189° |
| 2026-05-06 15:26 | 51.66327 | 20.40144 | 19712 ft | 369 kts | 189° |
| 2026-05-06 15:26 | 51.63759 | 20.39757 | 20201 ft | 372 kts | 189° |
| 2026-05-06 15:26 | 51.61170 | 20.39369 | 20678 ft | 375 kts | 189° |
| 2026-05-06 15:27 | 51.58556 | 20.38973 | 21143 ft | 378 kts | 189° |
| 2026-05-06 15:27 | 51.55925 | 20.38576 | 21611 ft | 381 kts | 189° |
| 2026-05-06 15:27 | 51.53274 | 20.38179 | 22064 ft | 384 kts | 189° |
| 2026-05-06 15:27 | 51.50601 | 20.37777 | 22497 ft | 387 kts | 189° |
| 2026-05-06 15:28 | 51.47912 | 20.37371 | 22926 ft | 390 kts | 189° |
| 2026-05-06 15:28 | 51.45199 | 20.36962 | 23351 ft | 393 kts | 189° |
| 2026-05-06 15:28 | 51.42472 | 20.36553 | 23729 ft | 395 kts | 189° |
| 2026-05-06 15:28 | 51.39746 | 20.36017 | 24098 ft | 393 kts | 196° |
| 2026-05-06 15:29 | 51.37139 | 20.34774 | 24468 ft | 390 kts | 206° |
| 2026-05-06 15:29 | 51.34677 | 20.32961 | 24836 ft | 391 kts | 208° |
| 2026-05-06 15:29 | 51.32212 | 20.31112 | 25203 ft | 392 kts | 208° |
| 2026-05-06 15:29 | 51.29729 | 20.29266 | 25568 ft | 394 kts | 208° |
| 2026-05-06 15:30 | 51.27237 | 20.27419 | 25934 ft | 396 kts | 208° |
| 2026-05-06 15:30 | 51.24733 | 20.25571 | 26305 ft | 397 kts | 208° |
| 2026-05-06 15:30 | 51.22217 | 20.23715 | 26640 ft | 399 kts | 208° |
| 2026-05-06 15:30 | 51.19696 | 20.21856 | 27004 ft | 400 kts | 208° |
| 2026-05-06 15:31 | 51.17163 | 20.19986 | 27359 ft | 402 kts | 208° |
| 2026-05-06 15:31 | 51.14658 | 20.18135 | 27701 ft | 403 kts | 208° |
| 2026-05-06 15:31 | 51.12105 | 20.16253 | 28030 ft | 405 kts | 208° |
| 2026-05-06 15:32 | 51.06969 | 20.12474 | 28681 ft | 408 kts | 208° |
| 2026-05-06 15:32 | 51.04388 | 20.10580 | 28999 ft | 410 kts | 208° |
| 2026-05-06 15:32 | 51.01789 | 20.08685 | 29314 ft | 412 kts | 207° |
| 2026-05-06 15:32 | 50.99179 | 20.06783 | 29651 ft | 413 kts | 207° |
| 2026-05-06 15:33 | 50.96563 | 20.04874 | 29971 ft | 415 kts | 208° |
| 2026-05-06 15:33 | 50.93941 | 20.02957 | 30288 ft | 415 kts | 208° |
| 2026-05-06 15:33 | 50.91325 | 20.01045 | 30656 ft | 414 kts | 208° |
| 2026-05-06 15:33 | 50.88712 | 19.99141 | 31017 ft | 413 kts | 208° |
| 2026-05-06 15:34 | 50.86106 | 19.97246 | 31379 ft | 412 kts | 208° |
| 2026-05-06 15:34 | 50.83502 | 19.95358 | 31726 ft | 411 kts | 208° |
| 2026-05-06 15:34 | 50.80901 | 19.93476 | 32092 ft | 411 kts | 208° |
| 2026-05-06 15:34 | 50.78303 | 19.91601 | 32401 ft | 411 kts | 208° |
| 2026-05-06 15:35 | 50.75700 | 19.89725 | 32727 ft | 411 kts | 208° |
| 2026-05-06 15:35 | 50.73107 | 19.87854 | 33056 ft | 410 kts | 208° |
| 2026-05-06 15:35 | 50.70513 | 19.85977 | 33384 ft | 410 kts | 208° |
| 2026-05-06 15:35 | 50.67925 | 19.84103 | 33717 ft | 409 kts | 208° |
| 2026-05-06 15:36 | 50.65338 | 19.82236 | 34013 ft | 409 kts | 208° |
| 2026-05-06 15:36 | 50.62750 | 19.80378 | 34283 ft | 408 kts | 208° |
| 2026-05-06 15:36 | 50.60165 | 19.78523 | 34551 ft | 408 kts | 208° |
| 2026-05-06 15:36 | 50.57583 | 19.76666 | 34803 ft | 408 kts | 208° |
| 2026-05-06 15:37 | 50.55003 | 19.74816 | 35067 ft | 408 kts | 208° |
| 2026-05-06 15:37 | 50.52422 | 19.72972 | 35311 ft | 407 kts | 208° |
| 2026-05-06 15:37 | 50.49842 | 19.71130 | 35573 ft | 407 kts | 208° |
| 2026-05-06 15:37 | 50.47263 | 19.69289 | 35774 ft | 407 kts | 208° |
| 2026-05-06 15:38 | 50.42110 | 19.65611 | 35829 ft | 406 kts | 208° |
| 2026-05-06 15:38 | 50.36958 | 19.61956 | 35827 ft | 406 kts | 208° |
| 2026-05-06 15:39 | 50.31812 | 19.58301 | 35840 ft | 406 kts | 208° |
| 2026-05-06 15:39 | 50.26696 | 19.54689 | 35835 ft | 406 kts | 208° |
| 2026-05-06 15:40 | 50.21546 | 19.51054 | 35840 ft | 406 kts | 208° |
| 2026-05-06 15:40 | 50.16390 | 19.47412 | 35838 ft | 407 kts | 208° |
| 2026-05-06 15:41 | 50.11222 | 19.43787 | 35846 ft | 408 kts | 208° |
| 2026-05-06 15:41 | 50.06048 | 19.40168 | 35853 ft | 408 kts | 208° |
| 2026-05-06 15:42 | 50.00868 | 19.36541 | 35855 ft | 408 kts | 208° |
| 2026-05-06 15:42 | 49.95683 | 19.32928 | 35864 ft | 408 kts | 208° |
| 2026-05-06 15:43 | 49.90496 | 19.29318 | 35853 ft | 409 kts | 208° |
| 2026-05-06 15:43 | 49.85307 | 19.25712 | 35865 ft | 409 kts | 208° |
| 2026-05-06 15:44 | 49.80113 | 19.22116 | 35868 ft | 409 kts | 208° |
| 2026-05-06 15:44 | 49.74915 | 19.18534 | 35870 ft | 409 kts | 208° |
| 2026-05-06 15:45 | 49.69718 | 19.14946 | 35864 ft | 409 kts | 208° |
| 2026-05-06 15:45 | 49.64511 | 19.11367 | 35870 ft | 409 kts | 208° |
| 2026-05-06 15:46 | 49.59303 | 19.07800 | 35872 ft | 410 kts | 208° |
| 2026-05-06 15:46 | 49.54094 | 19.04235 | 35880 ft | 410 kts | 208° |
| 2026-05-06 15:47 | 49.48880 | 19.00672 | 35881 ft | 410 kts | 208° |
| 2026-05-06 15:47 | 49.43958 | 18.96407 | 35881 ft | 403 kts | 222° |
| 2026-05-06 15:48 | 49.40047 | 18.90324 | 35881 ft | 400 kts | 229° |
| 2026-05-06 15:48 | 49.36265 | 18.84043 | 35874 ft | 401 kts | 229° |
| 2026-05-06 15:49 | 49.32474 | 18.77768 | 35867 ft | 401 kts | 229° |
| 2026-05-06 15:49 | 49.28709 | 18.71551 | 35857 ft | 401 kts | 229° |
| 2026-05-06 15:50 | 49.24907 | 18.65303 | 35862 ft | 401 kts | 229° |
| 2026-05-06 15:50 | 49.21101 | 18.59057 | 35876 ft | 401 kts | 229° |
| 2026-05-06 15:51 | 49.17298 | 18.52830 | 35863 ft | 401 kts | 229° |
| 2026-05-06 15:51 | 49.13481 | 18.46607 | 35858 ft | 401 kts | 229° |
| 2026-05-06 15:52 | 49.09669 | 18.40393 | 35861 ft | 401 kts | 229° |
| 2026-05-06 15:52 | 49.05856 | 18.34177 | 35883 ft | 401 kts | 229° |
| 2026-05-06 15:53 | 49.02050 | 18.27991 | 35879 ft | 400 kts | 229° |
| 2026-05-06 15:53 | 48.98241 | 18.21823 | 35866 ft | 399 kts | 229° |
| 2026-05-06 15:54 | 48.94432 | 18.15675 | 35851 ft | 399 kts | 229° |
| 2026-05-06 15:54 | 48.90622 | 18.09540 | 35854 ft | 399 kts | 229° |
| 2026-05-06 15:55 | 48.86805 | 18.03403 | 35858 ft | 399 kts | 229° |
| 2026-05-06 15:55 | 48.82986 | 17.97287 | 35860 ft | 399 kts | 229° |
| 2026-05-06 15:56 | 48.79161 | 17.91178 | 35857 ft | 399 kts | 229° |
| 2026-05-06 15:56 | 48.75334 | 17.85070 | 35855 ft | 399 kts | 229° |
| 2026-05-06 15:57 | 48.71524 | 17.79024 | 35841 ft | 399 kts | 229° |
| 2026-05-06 15:57 | 48.67691 | 17.72937 | 35839 ft | 400 kts | 229° |
| 2026-05-06 15:58 | 48.63855 | 17.66852 | 35843 ft | 400 kts | 229° |
| 2026-05-06 15:58 | 48.60014 | 17.60777 | 35833 ft | 400 kts | 228° |
| 2026-05-06 15:59 | 48.56169 | 17.54718 | 35841 ft | 399 kts | 228° |
| 2026-05-06 15:59 | 48.52329 | 17.48677 | 35837 ft | 398 kts | 228° |
| 2026-05-06 16:00 | 48.48498 | 17.42663 | 35836 ft | 397 kts | 228° |
| 2026-05-06 16:00 | 48.44667 | 17.36667 | 35832 ft | 397 kts | 228° |
| 2026-05-06 16:01 | 48.40836 | 17.30686 | 35817 ft | 397 kts | 228° |
| 2026-05-06 16:01 | 48.37005 | 17.24712 | 35819 ft | 397 kts | 228° |
| 2026-05-06 16:02 | 48.33165 | 17.18738 | 35823 ft | 397 kts | 228° |
| 2026-05-06 16:02 | 48.29327 | 17.12784 | 35824 ft | 397 kts | 227° |
| 2026-05-06 16:03 | 48.25483 | 17.06835 | 35831 ft | 397 kts | 227° |
| 2026-05-06 16:03 | 48.21629 | 17.00897 | 35815 ft | 398 kts | 227° |
| 2026-05-06 16:04 | 48.17637 | 16.95236 | 35814 ft | 400 kts | 221° |
| 2026-05-06 16:04 | 48.13267 | 16.90073 | 35817 ft | 400 kts | 221° |
| 2026-05-06 16:05 | 48.08893 | 16.84908 | 35805 ft | 401 kts | 221° |
| 2026-05-06 16:05 | 48.04512 | 16.79748 | 35799 ft | 401 kts | 220° |
| 2026-05-06 16:06 | 48.00128 | 16.74597 | 35802 ft | 401 kts | 220° |
| 2026-05-06 16:06 | 47.96448 | 16.70284 | 35805 ft | 401 kts | 220° |
| 2026-05-06 16:07 | 47.92054 | 16.65146 | 35810 ft | 402 kts | 220° |
| 2026-05-06 16:07 | 47.87680 | 16.60041 | 35811 ft | 402 kts | 220° |
| 2026-05-06 16:08 | 47.83283 | 16.54922 | 35836 ft | 400 kts | 220° |
| 2026-05-06 16:08 | 47.78912 | 16.49840 | 35832 ft | 398 kts | 219° |
| 2026-05-06 16:09 | 47.74551 | 16.44789 | 35829 ft | 397 kts | 219° |
| 2026-05-06 16:09 | 47.70201 | 16.39763 | 35836 ft | 396 kts | 219° |
| 2026-05-06 16:10 | 47.65856 | 16.34740 | 35833 ft | 396 kts | 219° |
| 2026-05-06 16:10 | 47.61512 | 16.29733 | 35837 ft | 395 kts | 219° |
| 2026-05-06 16:11 | 47.57167 | 16.24742 | 35846 ft | 395 kts | 219° |
| 2026-05-06 16:11 | 47.52824 | 16.19759 | 35843 ft | 395 kts | 219° |
| 2026-05-06 16:12 | 47.48481 | 16.14782 | 35826 ft | 395 kts | 219° |
| 2026-05-06 16:12 | 47.44124 | 16.09810 | 35830 ft | 396 kts | 219° |
| 2026-05-06 16:13 | 47.39764 | 16.04848 | 35846 ft | 396 kts | 219° |
| 2026-05-06 16:13 | 47.35395 | 15.99884 | 35857 ft | 396 kts | 219° |
| 2026-05-06 16:14 | 47.31051 | 15.94963 | 35829 ft | 396 kts | 219° |
| 2026-05-06 16:14 | 47.26672 | 15.89996 | 35851 ft | 398 kts | 219° |
| 2026-05-06 16:15 | 47.22279 | 15.85019 | 35854 ft | 399 kts | 219° |
| 2026-05-06 16:15 | 47.17873 | 15.80055 | 35862 ft | 399 kts | 219° |
| 2026-05-06 16:16 | 47.13456 | 15.75093 | 35879 ft | 399 kts | 219° |
| 2026-05-06 16:16 | 47.09045 | 15.70136 | 35852 ft | 400 kts | 219° |
| 2026-05-06 16:17 | 47.04611 | 15.65158 | 35856 ft | 401 kts | 219° |
| 2026-05-06 16:17 | 47.00166 | 15.60189 | 35870 ft | 402 kts | 219° |
| 2026-05-06 16:18 | 46.95707 | 15.55225 | 35878 ft | 403 kts | 218° |
| 2026-05-06 16:18 | 46.91240 | 15.50263 | 35866 ft | 403 kts | 218° |
| 2026-05-06 16:19 | 46.86773 | 15.45302 | 35874 ft | 404 kts | 218° |
| 2026-05-06 16:19 | 46.82299 | 15.40336 | 35879 ft | 404 kts | 218° |
| 2026-05-06 16:20 | 46.77823 | 15.35379 | 35878 ft | 404 kts | 218° |
| 2026-05-06 16:20 | 46.73336 | 15.30433 | 35879 ft | 404 kts | 218° |
| 2026-05-06 16:21 | 46.68851 | 15.25506 | 35898 ft | 404 kts | 218° |
| 2026-05-06 16:21 | 46.64358 | 15.20678 | 35902 ft | 404 kts | 213° |
| 2026-05-06 16:22 | 46.59459 | 15.16623 | 35915 ft | 405 kts | 211° |
| 2026-05-06 16:22 | 46.54545 | 15.12617 | 35897 ft | 405 kts | 211° |
| 2026-05-06 16:23 | 46.49622 | 15.08606 | 35904 ft | 406 kts | 211° |
| 2026-05-06 16:23 | 46.44688 | 15.04593 | 35919 ft | 407 kts | 211° |
| 2026-05-06 16:24 | 46.39750 | 15.00588 | 35933 ft | 407 kts | 211° |
| 2026-05-06 16:24 | 46.34804 | 14.96581 | 35929 ft | 407 kts | 211° |
| 2026-05-06 16:25 | 46.29855 | 14.92583 | 35935 ft | 407 kts | 211° |
| 2026-05-06 16:25 | 46.24907 | 14.88589 | 35929 ft | 408 kts | 211° |
| 2026-05-06 16:26 | 46.19953 | 14.84594 | 35936 ft | 407 kts | 212° |
| 2026-05-06 16:26 | 46.15000 | 14.80611 | 35938 ft | 408 kts | 211° |
| 2026-05-06 16:27 | 46.10039 | 14.76646 | 35948 ft | 408 kts | 211° |
| 2026-05-06 16:27 | 46.05083 | 14.72688 | 35949 ft | 407 kts | 211° |
| 2026-05-06 16:28 | 46.00128 | 14.68735 | 35948 ft | 407 kts | 211° |
| 2026-05-06 16:28 | 45.95178 | 14.64792 | 35953 ft | 407 kts | 211° |
| 2026-05-06 16:29 | 45.90241 | 14.60856 | 35958 ft | 406 kts | 211° |
| 2026-05-06 16:29 | 45.85305 | 14.56929 | 35961 ft | 405 kts | 211° |
| 2026-05-06 16:30 | 45.81210 | 14.53685 | 35959 ft | 405 kts | 211° |
| 2026-05-06 16:30 | 45.75445 | 14.49131 | 35960 ft | 405 kts | 211° |
| 2026-05-06 16:31 | 45.70511 | 14.45242 | 35963 ft | 405 kts | 211° |
| 2026-05-06 16:31 | 45.65602 | 14.41386 | 35963 ft | 405 kts | 211° |
| 2026-05-06 16:32 | 45.60651 | 14.37500 | 35954 ft | 406 kts | 211° |
| 2026-05-06 16:32 | 45.55692 | 14.33617 | 35966 ft | 407 kts | 211° |
| 2026-05-06 16:33 | 45.50731 | 14.29728 | 35978 ft | 407 kts | 211° |
| 2026-05-06 16:34 | 45.43284 | 14.23900 | 35979 ft | 407 kts | 211° |
| 2026-05-06 16:34 | 45.38313 | 14.20038 | 35980 ft | 407 kts | 211° |
| 2026-05-06 16:35 | 45.33338 | 14.16177 | 35982 ft | 407 kts | 211° |
| 2026-05-06 16:35 | 45.28365 | 14.12321 | 35982 ft | 407 kts | 211° |
| 2026-05-06 16:36 | 45.23400 | 14.08477 | 35984 ft | 406 kts | 211° |
| 2026-05-06 16:36 | 45.18438 | 14.04644 | 35984 ft | 406 kts | 211° |
| 2026-05-06 16:37 | 45.13478 | 14.00820 | 35978 ft | 405 kts | 211° |
| 2026-05-06 16:37 | 45.08519 | 13.97008 | 35976 ft | 405 kts | 211° |
| 2026-05-06 16:38 | 45.03560 | 13.93211 | 35974 ft | 405 kts | 211° |
| 2026-05-06 16:38 | 44.98596 | 13.89409 | 35964 ft | 406 kts | 211° |
| 2026-05-06 16:39 | 44.93667 | 13.85638 | 35966 ft | 406 kts | 211° |
| 2026-05-06 16:39 | 44.88708 | 13.81852 | 35977 ft | 405 kts | 211° |
| 2026-05-06 16:40 | 44.83758 | 13.78083 | 35975 ft | 404 kts | 211° |
| 2026-05-06 16:40 | 44.78821 | 13.74339 | 35971 ft | 403 kts | 211° |
| 2026-05-06 16:41 | 44.73888 | 13.70599 | 35973 ft | 402 kts | 212° |
| 2026-05-06 16:41 | 44.69065 | 13.66938 | 35970 ft | 401 kts | 212° |
| 2026-05-06 16:42 | 44.64209 | 13.63265 | 35749 ft | 396 kts | 212° |
| 2026-05-06 16:42 | 44.61783 | 13.61435 | 35496 ft | 394 kts | 212° |
| 2026-05-06 16:42 | 44.59375 | 13.59619 | 35246 ft | 393 kts | 212° |
| 2026-05-06 16:42 | 44.56967 | 13.57807 | 35023 ft | 392 kts | 212° |
| 2026-05-06 16:43 | 44.54563 | 13.56004 | 34893 ft | 391 kts | 212° |
| 2026-05-06 16:43 | 44.49750 | 13.52399 | 34925 ft | 393 kts | 212° |
| 2026-05-06 16:44 | 44.44936 | 13.48781 | 34930 ft | 393 kts | 212° |
| 2026-05-06 16:44 | 44.40121 | 13.45173 | 34922 ft | 393 kts | 212° |
| 2026-05-06 16:45 | 44.35325 | 13.41525 | 34918 ft | 392 kts | 212° |
| 2026-05-06 16:45 | 44.30538 | 13.37858 | 34922 ft | 392 kts | 212° |
| 2026-05-06 16:46 | 44.25773 | 13.34235 | 34924 ft | 393 kts | 212° |
| 2026-05-06 16:46 | 44.20966 | 13.30600 | 34914 ft | 393 kts | 212° |
| 2026-05-06 16:47 | 44.16155 | 13.26970 | 34923 ft | 393 kts | 212° |
| 2026-05-06 16:47 | 44.11337 | 13.23333 | 34929 ft | 394 kts | 212° |
| 2026-05-06 16:48 | 44.06520 | 13.19705 | 34924 ft | 394 kts | 212° |
| 2026-05-06 16:48 | 44.01695 | 13.16075 | 34927 ft | 394 kts | 211° |
| 2026-05-06 16:49 | 43.96868 | 13.12454 | 34943 ft | 394 kts | 211° |
| 2026-05-06 16:49 | 43.92044 | 13.08843 | 34927 ft | 394 kts | 211° |
| 2026-05-06 16:50 | 43.87215 | 13.05235 | 34923 ft | 394 kts | 211° |
| 2026-05-06 16:50 | 43.82394 | 13.01635 | 34930 ft | 393 kts | 211° |
| 2026-05-06 16:51 | 43.77581 | 12.98055 | 34931 ft | 392 kts | 211° |
| 2026-05-06 16:51 | 43.72779 | 12.94487 | 34930 ft | 391 kts | 211° |
| 2026-05-06 16:52 | 43.67985 | 12.90930 | 34922 ft | 390 kts | 212° |
| 2026-05-06 16:52 | 43.63210 | 12.87395 | 34941 ft | 389 kts | 212° |
| 2026-05-06 16:53 | 43.58447 | 12.83880 | 34942 ft | 387 kts | 212° |
| 2026-05-06 16:53 | 43.53701 | 12.80377 | 34950 ft | 387 kts | 212° |
| 2026-05-06 16:54 | 43.48964 | 12.76885 | 34941 ft | 386 kts | 211° |
| 2026-05-06 16:54 | 43.46591 | 12.75138 | 34746 ft | 389 kts | 211° |
| 2026-05-06 16:54 | 43.44192 | 12.73372 | 34214 ft | 390 kts | 211° |
| 2026-05-06 16:54 | 43.41847 | 12.71640 | 33720 ft | 386 kts | 212° |
| 2026-05-06 16:55 | 43.39524 | 12.69809 | 33203 ft | 383 kts | 213° |
| 2026-05-06 16:55 | 43.37257 | 12.67913 | 32731 ft | 380 kts | 214° |
| 2026-05-06 16:55 | 43.35032 | 12.65991 | 32252 ft | 376 kts | 215° |
| 2026-05-06 16:55 | 43.32830 | 12.64075 | 31775 ft | 373 kts | 215° |
| 2026-05-06 16:56 | 43.30644 | 12.62181 | 31291 ft | 370 kts | 215° |
| 2026-05-06 16:56 | 43.28472 | 12.60319 | 30829 ft | 367 kts | 215° |
| 2026-05-06 16:56 | 43.26311 | 12.58487 | 30360 ft | 364 kts | 215° |
| 2026-05-06 16:56 | 43.24162 | 12.56678 | 29881 ft | 361 kts | 215° |
| 2026-05-06 16:57 | 43.22031 | 12.54887 | 29398 ft | 357 kts | 215° |
| 2026-05-06 16:57 | 43.19924 | 12.53123 | 28946 ft | 353 kts | 214° |
| 2026-05-06 16:57 | 43.18540 | 12.51966 | 28659 ft | 350 kts | 215° |
| 2026-05-06 16:57 | 43.16470 | 12.50233 | 28221 ft | 347 kts | 215° |
| 2026-05-06 16:58 | 43.14417 | 12.48514 | 27780 ft | 344 kts | 215° |
| 2026-05-06 16:58 | 43.12386 | 12.46812 | 27382 ft | 341 kts | 215° |
| 2026-05-06 16:58 | 43.10368 | 12.45121 | 26971 ft | 339 kts | 215° |
| 2026-05-06 16:58 | 43.08370 | 12.43443 | 26579 ft | 336 kts | 215° |
| 2026-05-06 16:59 | 43.06386 | 12.41782 | 26186 ft | 333 kts | 215° |
| 2026-05-06 16:59 | 43.04416 | 12.40137 | 25818 ft | 331 kts | 214° |
| 2026-05-06 16:59 | 43.02455 | 12.38502 | 25397 ft | 329 kts | 214° |
| 2026-05-06 16:59 | 43.00508 | 12.36882 | 25002 ft | 326 kts | 214° |
| 2026-05-06 17:00 | 42.98577 | 12.35276 | 24610 ft | 324 kts | 214° |
| 2026-05-06 17:00 | 42.96660 | 12.33681 | 24229 ft | 321 kts | 214° |
| 2026-05-06 17:00 | 42.94761 | 12.32102 | 23828 ft | 319 kts | 214° |
| 2026-05-06 17:00 | 42.92872 | 12.30535 | 23409 ft | 317 kts | 214° |
| 2026-05-06 17:01 | 42.90997 | 12.28977 | 22985 ft | 314 kts | 214° |
| 2026-05-06 17:01 | 42.89143 | 12.27439 | 22569 ft | 310 kts | 214° |
| 2026-05-06 17:01 | 42.87306 | 12.25915 | 22174 ft | 307 kts | 214° |
| 2026-05-06 17:01 | 42.85492 | 12.24414 | 21776 ft | 304 kts | 214° |
| 2026-05-06 17:02 | 42.83690 | 12.22923 | 21380 ft | 302 kts | 213° |
| 2026-05-06 17:02 | 42.81904 | 12.21443 | 20985 ft | 300 kts | 213° |
| 2026-05-06 17:02 | 42.80131 | 12.19972 | 20589 ft | 298 kts | 213° |
| 2026-05-06 17:02 | 42.78364 | 12.18507 | 20190 ft | 297 kts | 213° |
| 2026-05-06 17:03 | 42.76508 | 12.17285 | 19802 ft | 297 kts | 201° |
| 2026-05-06 17:03 | 42.74491 | 12.16634 | 19398 ft | 300 kts | 190° |
| 2026-05-06 17:03 | 42.72400 | 12.16489 | 19072 ft | 300 kts | 184° |
| 2026-05-06 17:03 | 42.70293 | 12.16732 | 18994 ft | 311 kts | 172° |
| 2026-05-06 17:04 | 42.68220 | 12.17680 | 18736 ft | 319 kts | 158° |
| 2026-05-06 17:04 | 42.66288 | 12.19190 | 18309 ft | 319 kts | 154° |
| 2026-05-06 17:04 | 42.64394 | 12.20726 | 17894 ft | 316 kts | 154° |
| 2026-05-06 17:04 | 42.62514 | 12.22247 | 17259 ft | 313 kts | 154° |
| 2026-05-06 17:05 | 42.60647 | 12.23749 | 16670 ft | 311 kts | 154° |
| 2026-05-06 17:05 | 42.58790 | 12.25235 | 16079 ft | 309 kts | 154° |
| 2026-05-06 17:05 | 42.56940 | 12.26709 | 15514 ft | 307 kts | 154° |
| 2026-05-06 17:05 | 42.55947 | 12.27500 | 15242 ft | 305 kts | 154° |
| 2026-05-06 17:06 | 42.54135 | 12.28943 | 14776 ft | 300 kts | 154° |
| 2026-05-06 17:06 | 42.52350 | 12.30368 | 14264 ft | 296 kts | 154° |
| 2026-05-06 17:06 | 42.50580 | 12.31777 | 13681 ft | 294 kts | 154° |
| 2026-05-06 17:06 | 42.48821 | 12.33172 | 13021 ft | 293 kts | 154° |
| 2026-05-06 17:07 | 42.47068 | 12.34565 | 12450 ft | 291 kts | 153° |
| 2026-05-06 17:07 | 42.45322 | 12.35955 | 11872 ft | 291 kts | 154° |
| 2026-05-06 17:07 | 42.43583 | 12.37339 | 11331 ft | 289 kts | 154° |
| 2026-05-06 17:07 | 42.41854 | 12.38711 | 10770 ft | 287 kts | 155° |
| 2026-05-06 17:08 | 42.40140 | 12.40073 | 10280 ft | 282 kts | 155° |
| 2026-05-06 17:08 | 42.38504 | 12.41380 | 10064 ft | 267 kts | 153° |
| 2026-05-06 17:08 | 42.36934 | 12.42631 | 9602 ft | 263 kts | 154° |
| 2026-05-06 17:08 | 42.35291 | 12.43632 | 9084 ft | 256 kts | 167° |
| 2026-05-06 17:09 | 42.33574 | 12.44343 | 8556 ft | 253 kts | 165° |
| 2026-05-06 17:09 | 42.31925 | 12.45033 | 8141 ft | 249 kts | 165° |
| 2026-05-06 17:09 | 42.30265 | 12.45729 | 8019 ft | 251 kts | 165° |
| 2026-05-06 17:09 | 42.28595 | 12.46431 | 7895 ft | 251 kts | 165° |
| 2026-05-06 17:10 | 42.26931 | 12.47131 | 7762 ft | 250 kts | 165° |
| 2026-05-06 17:10 | 42.25281 | 12.47827 | 7643 ft | 245 kts | 165° |
| 2026-05-06 17:10 | 42.23647 | 12.48169 | 7511 ft | 235 kts | 188° |
| 2026-05-06 17:10 | 42.22150 | 12.47407 | 7381 ft | 232 kts | 218° |
| 2026-05-06 17:11 | 42.21160 | 12.45710 | 7255 ft | 235 kts | 247° |
| 2026-05-06 17:11 | 42.20658 | 12.43604 | 7136 ft | 236 kts | 251° |
| 2026-05-06 17:11 | 42.20175 | 12.41486 | 7023 ft | 236 kts | 250° |
| 2026-05-06 17:11 | 42.19689 | 12.39373 | 6903 ft | 233 kts | 250° |
| 2026-05-06 17:12 | 42.19214 | 12.37307 | 6785 ft | 229 kts | 250° |
| 2026-05-06 17:12 | 42.18740 | 12.35254 | 6664 ft | 229 kts | 250° |
| 2026-05-06 17:12 | 42.18266 | 12.33207 | 6543 ft | 228 kts | 250° |
| 2026-05-06 17:12 | 42.17797 | 12.31184 | 6348 ft | 224 kts | 250° |
| 2026-05-06 17:13 | 42.17332 | 12.29192 | 6082 ft | 221 kts | 250° |
| 2026-05-06 17:13 | 42.16865 | 12.27190 | 5983 ft | 226 kts | 250° |
| 2026-05-06 17:13 | 42.16390 | 12.25157 | 5830 ft | 229 kts | 249° |
| 2026-05-06 17:13 | 42.15910 | 12.23103 | 5467 ft | 230 kts | 249° |
| 2026-05-06 17:14 | 42.15412 | 12.21105 | 5256 ft | 219 kts | 242° |
| 2026-05-06 17:14 | 42.14492 | 12.19521 | 5133 ft | 208 kts | 217° |
| 2026-05-06 17:14 | 42.13213 | 12.18672 | 4840 ft | 205 kts | 194° |
| 2026-05-06 17:14 | 42.11845 | 12.18271 | 4538 ft | 203 kts | 193° |
| 2026-05-06 17:15 | 42.10455 | 12.17858 | 4249 ft | 200 kts | 193° |
| 2026-05-06 17:15 | 42.09107 | 12.17456 | 3978 ft | 197 kts | 192° |
| 2026-05-06 17:15 | 42.07787 | 12.17065 | 3719 ft | 195 kts | 191° |
| 2026-05-06 17:15 | 42.06441 | 12.17017 | 3455 ft | 195 kts | 170° |
| 2026-05-06 17:16 | 42.05135 | 12.17504 | 3198 ft | 195 kts | 164° |
| 2026-05-06 17:16 | 42.03849 | 12.18052 | 3020 ft | 193 kts | 164° |
| 2026-05-06 17:16 | 42.02571 | 12.18594 | 2971 ft | 193 kts | 164° |
| 2026-05-06 17:16 | 42.01298 | 12.19131 | 3028 ft | 191 kts | 163° |
| 2026-05-06 17:17 | 42.00030 | 12.19666 | 3008 ft | 191 kts | 163° |
| 2026-05-06 17:17 | 41.98755 | 12.20203 | 2890 ft | 193 kts | 163° |
| 2026-05-06 17:17 | 41.97479 | 12.20740 | 2675 ft | 192 kts | 163° |
| 2026-05-06 17:17 | 41.96246 | 12.21258 | 2436 ft | 179 kts | 163° |
| 2026-05-06 17:18 | 41.95086 | 12.21746 | 2194 ft | 170 kts | 164° |
| 2026-05-06 17:18 | 41.94008 | 12.22200 | 2007 ft | 155 kts | 164° |
| 2026-05-06 17:18 | 41.92994 | 12.22626 | 1799 ft | 151 kts | 164° |
| 2026-05-06 17:18 | 41.92004 | 12.23041 | 1588 ft | 148 kts | 164° |
| 2026-05-06 17:19 | 41.91019 | 12.23454 | 1390 ft | 148 kts | 163° |
| 2026-05-06 17:19 | 41.90032 | 12.23869 | 1189 ft | 145 kts | 165° |
| 2026-05-06 17:19 | 41.89078 | 12.24269 | 1002 ft | 143 kts | 164° |
| 2026-05-06 17:19 | 41.88140 | 12.24661 | 788 ft | 143 kts | 163° |
| 2026-05-06 17:20 | 41.87202 | 12.25055 | 634 ft | 140 kts | 163° |
| 2026-05-06 17:20 | 41.86266 | 12.25440 | 437 ft | 140 kts | 164° |
| 2026-05-06 17:20 | 41.85329 | 12.25846 | 293 ft | 142 kts | 163° |
| 2026-05-06 17:20 | 41.84393 | 12.26235 | 66 ft | 140 kts | 162° |
| 2026-05-06 17:21 | 41.83507 | 12.26607 | 14 ft | 111 kts | 162° |
| 2026-05-06 17:21 | 41.83056 | 12.26795 | 12 ft | 35 kts | 163° |
| 2026-05-06 17:21 | 41.82856 | 12.26862 | 13 ft | 23 kts | 172° |
| 2026-05-06 17:21 | 41.82719 | 12.26869 | 12 ft | 18 kts | 186° |
| 2026-05-06 17:22 | 41.82612 | 12.26841 | 10 ft | 16 kts | 193° |
| 2026-05-06 17:22 | 41.82512 | 12.26811 | 11 ft | 13 kts | 192° |
| 2026-05-06 17:22 | 41.82422 | 12.26786 | 11 ft | 14 kts | 191° |
| 2026-05-06 17:22 | 41.82322 | 12.26785 | 12 ft | 15 kts | 169° |
| 2026-05-06 17:23 | 41.82223 | 12.26821 | 11 ft | 15 kts | 162° |
| 2026-05-06 17:23 | 41.82121 | 12.26863 | 11 ft | 15 kts | 162° |
| 2026-05-06 17:23 | 41.82018 | 12.26907 | 11 ft | 16 kts | 162° |
| 2026-05-06 17:23 | 41.81914 | 12.26951 | 11 ft | 16 kts | 162° |
| 2026-05-06 17:24 | 41.81810 | 12.26994 | 14 ft | 16 kts | 162° |
| 2026-05-06 17:24 | 41.81705 | 12.27038 | 13 ft | 16 kts | 162° |
| 2026-05-06 17:24 | 41.81598 | 12.27083 | 12 ft | 17 kts | 162° |
| 2026-05-06 17:24 | 41.81485 | 12.27131 | 12 ft | 17 kts | 162° |
| 2026-05-06 17:25 | 41.81371 | 12.27178 | 12 ft | 17 kts | 163° |
| 2026-05-06 17:25 | 41.81258 | 12.27225 | 12 ft | 17 kts | 162° |
| 2026-05-06 17:25 | 41.81144 | 12.27273 | 12 ft | 17 kts | 162° |
| 2026-05-06 17:25 | 41.81031 | 12.27320 | 12 ft | 17 kts | 163° |
| 2026-05-06 17:26 | 41.80924 | 12.27351 | 13 ft | 14 kts | 181° |
| 2026-05-06 17:26 | 41.80841 | 12.27335 | 13 ft | 12 kts | 189° |
| 2026-05-06 17:26 | 41.80751 | 12.27315 | 13 ft | 13 kts | 189° |
| 2026-05-06 17:26 | 41.80672 | 12.27258 | 13 ft | 14 kts | 231° |
| 2026-05-06 17:27 | 41.80632 | 12.27139 | 13 ft | 14 kts | 249° |
| 2026-05-06 17:27 | 41.80598 | 12.27014 | 14 ft | 15 kts | 250° |
| 2026-05-06 17:27 | 41.80559 | 12.26875 | 15 ft | 18 kts | 250° |
| 2026-05-06 17:27 | 41.80514 | 12.26711 | 16 ft | 19 kts | 250° |
| 2026-05-06 17:28 | 41.80468 | 12.26545 | 16 ft | 19 kts | 250° |
| 2026-05-06 17:28 | 41.80437 | 12.26431 | 15 ft | 10 kts | 250° |
| 2026-05-06 17:28 | 41.80395 | 12.26369 | 15 ft | 9 kts | 201° |
| 2026-05-06 17:28 | 41.80331 | 12.26379 | 14 ft | 10 kts | 161° |
| 2026-05-06 17:29 | 41.80257 | 12.26411 | 14 ft | 12 kts | 169° |
| 2026-05-06 17:29 | 41.80174 | 12.26380 | 14 ft | 13 kts | 205° |
| 2026-05-06 17:29 | 41.80085 | 12.26326 | 14 ft | 15 kts | 204° |
| 2026-05-06 17:29 | 41.79987 | 12.26266 | 14 ft | 16 kts | 205° |
| 2026-05-06 17:30 | 41.79889 | 12.26205 | 14 ft | 13 kts | 205° |
| 2026-05-06 17:30 | 41.79817 | 12.26160 | 14 ft | 9 kts | 205° |
| 2026-05-06 17:30 | 41.79769 | 12.26112 | 14 ft | 9 kts | 243° |
| 2026-05-06 17:30 | 41.79781 | 12.26026 | 14 ft | 11 kts | 294° |
| 2026-05-06 17:31 | 41.79813 | 12.25932 | 16 ft | 9 kts | 295° |
| 2026-05-06 17:31 | 41.79830 | 12.25883 | 15 ft | 0 kts | 294° |
| 2026-05-06 17:31 | 41.79833 | 12.25875 | 14 ft | 2 kts | 294° |
| 2026-05-06 17:31 | 41.79838 | 12.25859 | 14 ft | 0 kts | 294° |
| 2026-05-06 17:32 | 41.79839 | 12.25851 | 14 ft | 2 kts | 273° |
| 2026-05-06 17:32 | 41.79830 | 12.25834 | 14 ft | 3 kts | 223° |
| 2026-05-06 17:32 | 41.79809 | 12.25825 | 14 ft | 4 kts | 199° |
| 2026-05-06 17:32 | 41.79777 | 12.25806 | 14 ft | 6 kts | 205° |
| 2026-05-06 17:33 | 41.79734 | 12.25780 | 16 ft | 8 kts | 205° |
| 2026-05-06 17:33 | 41.79701 | 12.25761 | 14 ft | 2 kts | 190° |
| 2026-05-06 17:33 | 41.79686 | 12.25773 | 14 ft | 3 kts | 134° |
| 2026-05-06 17:33 | 41.79674 | 12.25803 | 14 ft | 3 kts | 116° |
| 2026-05-06 17:34 | 41.79670 | 12.25816 | 14 ft | 0 kts | 116° |
| 2026-05-06 17:34 | 41.79669 | 12.25817 | 14 ft | 0 kts | 116° |